createdAt,value
2022-12-18T00:00:42.945Z,42.87
2022-12-18T00:05:49.798Z,42.42
2022-12-18T00:10:53.320Z,42.30
2022-12-18T00:16:03.622Z,42.16
2022-12-18T00:21:08.952Z,42.55
2022-12-18T00:26:13.736Z,42.60
2022-12-18T00:31:20.371Z,42.76
2022-12-18T00:36:25.695Z,41.56
2022-12-18T00:41:46.818Z,41.77
2022-12-18T00:46:51.690Z,42.22
2022-12-18T00:51:57.829Z,42.36
2022-12-18T00:57:01.241Z,42.09
2022-12-18T01:02:06.152Z,42.85
2022-12-18T01:07:09.622Z,43.24
2022-12-18T01:12:13.206Z,42.18
2022-12-18T01:17:17.984Z,42.37
2022-12-18T01:22:21.383Z,42.64
2022-12-18T01:27:24.853Z,42.97
2022-12-18T01:32:31.809Z,43.47
2022-12-18T01:37:35.197Z,44.06
2022-12-18T01:42:40.007Z,43.66
2022-12-18T01:47:47.701Z,42.96
2022-12-18T01:52:54.225Z,43.76
2022-12-18T01:58:00.214Z,43.22
2022-12-18T02:03:05.179Z,42.71
2022-12-18T02:08:13.006Z,42.94
2022-12-18T02:13:22.398Z,43.28
2022-12-18T02:18:30.747Z,42.96
2022-12-18T02:23:47.168Z,42.70
2022-12-18T02:28:55.651Z,42.82
2022-12-18T02:34:02.593Z,42.65
2022-12-18T02:39:11.656Z,42.47
2022-12-18T02:44:22.243Z,42.71
2022-12-18T02:49:34.345Z,42.25
2022-12-18T02:54:47.619Z,41.86
2022-12-18T02:59:59.018Z,42.12
2022-12-18T03:05:07.528Z,42.77
2022-12-18T03:10:14.154Z,42.58
2022-12-18T03:15:21.777Z,41.98
2022-12-18T03:20:33.937Z,42.29
2022-12-18T03:25:40.603Z,42.18
2022-12-18T03:30:47.831Z,42.33
2022-12-18T03:35:51.873Z,41.77
2022-12-18T03:41:01.315Z,42.63
2022-12-18T03:46:11.821Z,42.45
2022-12-18T03:51:19.760Z,42.12
2022-12-18T03:56:27.693Z,42.72
2022-12-18T04:01:36.023Z,42.47
2022-12-18T04:06:40.551Z,42.60
2022-12-18T04:11:48.121Z,42.39
2022-12-18T04:16:54.642Z,42.75
2022-12-18T04:22:03.786Z,41.94
2022-12-18T04:27:13.593Z,42.02
2022-12-18T04:32:22.667Z,41.85
2022-12-18T04:37:26.815Z,42.27
2022-12-18T04:42:30.354Z,42.82
2022-12-18T04:47:35.117Z,43.34
2022-12-18T04:52:39.653Z,43.86
2022-12-18T04:57:43.188Z,42.09
2022-12-18T05:02:47.986Z,41.98
2022-12-18T05:07:51.574Z,41.94
2022-12-18T05:13:01.285Z,43.76
2022-12-18T05:18:06.908Z,44.58
2022-12-18T05:23:10.355Z,44.51
2022-12-18T05:28:13.783Z,43.95
2022-12-18T05:33:18.586Z,43.34
2022-12-18T05:38:22.561Z,43.38
2022-12-18T05:43:27.009Z,43.59
2022-12-18T05:48:31.822Z,43.02
2022-12-18T05:53:35.743Z,42.50
2022-12-18T05:58:39.581Z,42.53
2022-12-18T06:03:45.102Z,43.04
2022-12-18T06:08:49.326Z,43.02
2022-12-18T06:13:57.819Z,44.64
2022-12-18T06:19:05.370Z,44.73
2022-12-18T06:24:09.032Z,45.01
2022-12-18T06:29:12.532Z,44.60
2022-12-18T06:34:17.409Z,43.83
2022-12-18T06:39:20.877Z,43.79
2022-12-18T06:44:24.265Z,44.19
2022-12-18T06:49:30.782Z,44.13
2022-12-18T06:54:34.294Z,44.10
2022-12-18T06:59:37.698Z,43.44
2022-12-18T07:04:42.794Z,43.83
2022-12-18T07:09:46.225Z,43.22
2022-12-18T07:14:49.676Z,43.25
2022-12-18T07:19:54.511Z,42.88
2022-12-18T07:24:58.065Z,44.19
2022-12-18T07:30:01.404Z,43.74
2022-12-18T07:35:06.889Z,43.20
2022-12-18T07:40:11.632Z,43.69
2022-12-18T07:45:14.952Z,43.86
2022-12-18T07:50:19.959Z,43.50
2022-12-18T07:55:23.383Z,43.28
2022-12-18T08:00:26.794Z,43.74
2022-12-18T08:05:31.650Z,43.25
2022-12-18T08:10:35.089Z,43.47
2022-12-18T08:15:38.473Z,43.77
2022-12-18T08:20:46.212Z,44.81
2022-12-18T08:25:49.745Z,44.69
2022-12-18T08:30:54.028Z,44.34
2022-12-18T08:36:00.247Z,43.76
2022-12-18T08:41:04.717Z,43.97
2022-12-18T08:46:08.671Z,43.78
2022-12-18T08:51:13.664Z,43.80
2022-12-18T08:56:17.243Z,43.69
2022-12-18T09:01:20.989Z,43.94
2022-12-18T09:06:27.501Z,44.10
2022-12-18T09:11:31.433Z,44.08
2022-12-18T09:16:35.840Z,43.73
2022-12-18T09:21:46.103Z,43.54
2022-12-18T09:26:57.800Z,43.52
2022-12-18T09:32:01.573Z,43.11
2022-12-18T09:37:06.346Z,42.57
2022-12-18T09:42:15.151Z,42.25
2022-12-18T09:47:22.363Z,41.72
2022-12-18T09:52:30.760Z,41.33
2022-12-18T09:57:35.782Z,41.58
2022-12-18T10:02:39.643Z,41.11
2022-12-18T10:07:55.373Z,40.97
2022-12-18T10:13:05.500Z,40.18
2022-12-18T10:18:22.094Z,40.15
2022-12-18T10:23:30.546Z,39.41
2022-12-18T10:28:35.768Z,38.75
2022-12-18T10:33:39.370Z,39.04
2022-12-18T10:38:44.843Z,39.01
2022-12-18T10:43:48.330Z,38.39
2022-12-18T10:48:57.052Z,38.40
2022-12-18T10:54:03.496Z,38.34
2022-12-18T10:59:10.989Z,39.00
2022-12-18T11:04:19.458Z,39.24
2022-12-18T11:09:25.520Z,38.05
2022-12-18T11:14:30.748Z,37.65
2022-12-18T11:19:36.372Z,37.49
2022-12-18T11:24:41.511Z,37.00
2022-12-18T11:29:46.898Z,37.24
2022-12-18T11:34:57.350Z,36.76
2022-12-18T11:40:10.069Z,35.93
2022-12-18T11:45:27.004Z,36.25
2022-12-18T11:50:34.990Z,36.00
2022-12-18T11:55:43.885Z,35.71
2022-12-18T12:00:53.046Z,35.45
2022-12-18T12:06:04.771Z,36.41
2022-12-18T12:11:13.592Z,36.61
2022-12-18T12:16:19.938Z,37.01
2022-12-18T12:21:27.760Z,37.14
2022-12-18T12:26:37.308Z,36.43
2022-12-18T12:31:52.253Z,36.19
2022-12-18T12:37:06.338Z,36.17
2022-12-18T12:42:34.182Z,36.33
2022-12-18T12:47:40.478Z,36.93
2022-12-18T12:52:46.514Z,36.92
2022-12-18T12:58:00.092Z,37.89
2022-12-18T13:03:08.608Z,37.95
2022-12-18T13:08:14.007Z,38.51
2022-12-18T13:13:24.383Z,39.22
2022-12-18T13:18:30.031Z,38.28
2022-12-18T13:23:35.730Z,38.72
2022-12-18T13:28:57.844Z,38.24
2022-12-18T13:34:26.162Z,38.05
2022-12-18T13:39:35.901Z,37.79
2022-12-18T13:44:43.002Z,37.92
2022-12-18T13:49:46.605Z,38.52
2022-12-18T13:54:53.840Z,38.69
2022-12-18T13:59:59.610Z,38.80
2022-12-18T14:05:03.204Z,40.09
2022-12-18T14:10:47.680Z,40.19
2022-12-18T14:15:42.981Z,39.79
2022-12-18T14:20:52.972Z,40.24
2022-12-18T14:26:00.794Z,40.48
2022-12-18T14:31:19.740Z,40.58
2022-12-18T14:36:24.970Z,41.07
2022-12-18T14:41:28.814Z,41.55
2022-12-18T14:46:36.123Z,41.15
2022-12-18T14:51:39.551Z,41.29
2022-12-18T14:56:46.643Z,41.90
2022-12-18T15:02:05.119Z,41.88
2022-12-18T15:07:16.956Z,41.98
2022-12-18T15:12:28.605Z,41.99
2022-12-18T15:17:33.704Z,42.79
2022-12-18T15:22:38.051Z,42.80
2022-12-18T15:27:50.470Z,42.32
2022-12-18T15:33:18.957Z,42.25
2022-12-18T15:38:22.298Z,42.10
2022-12-18T15:43:38.881Z,41.62
2022-12-18T15:48:45.593Z,41.94
2022-12-18T15:53:49.664Z,42.23
2022-12-18T15:58:53.028Z,42.30
2022-12-18T16:03:58.416Z,42.06
2022-12-18T16:09:01.909Z,42.73
2022-12-18T16:14:06.674Z,42.67
2022-12-18T16:19:12.068Z,43.15
2022-12-18T16:24:17.102Z,43.08
2022-12-18T16:29:27.821Z,43.41
2022-12-18T16:34:36.063Z,43.64
2022-12-18T16:39:40.560Z,43.25
2022-12-18T16:44:44.595Z,43.56
2022-12-18T16:49:51.753Z,43.29
2022-12-18T16:54:55.352Z,43.34
2022-12-18T17:00:04.711Z,42.66
2022-12-18T17:05:10.696Z,42.50
2022-12-18T17:10:15.347Z,42.86
2022-12-18T17:15:29.594Z,42.36
2022-12-18T17:20:39.563Z,42.14
2022-12-18T17:25:43.097Z,41.94
2022-12-18T17:30:46.493Z,41.98
2022-12-18T17:35:51.559Z,41.50
2022-12-18T17:40:54.997Z,41.86
2022-12-18T17:45:58.510Z,42.15
2022-12-18T17:51:05.733Z,41.61
2022-12-18T17:56:11.297Z,41.84
2022-12-18T18:01:16.224Z,41.68
2022-12-18T18:06:21.178Z,41.35
2022-12-18T18:11:43.280Z,40.80
2022-12-18T18:16:48.814Z,40.19
2022-12-18T18:21:54.628Z,40.33
2022-12-18T18:26:59.469Z,39.40
2022-12-18T18:32:03.226Z,39.30
2022-12-18T18:37:08.261Z,39.41
2022-12-18T18:42:11.862Z,39.64
2022-12-18T18:47:15.266Z,39.23
2022-12-18T18:52:20.026Z,39.50
2022-12-18T18:57:27.456Z,38.97
2022-12-18T19:02:33.576Z,38.51
2022-12-18T19:07:38.451Z,38.13
2022-12-18T19:12:59.759Z,37.63
2022-12-18T19:18:03.284Z,37.37
2022-12-18T19:23:08.131Z,37.44
2022-12-18T19:28:14.419Z,37.03
2022-12-18T19:33:42.360Z,36.92
2022-12-18T19:38:48.016Z,36.40
2022-12-18T19:43:52.218Z,36.46
2022-12-18T19:48:55.671Z,36.29
2022-12-18T19:54:01.981Z,36.34
2022-12-18T19:59:05.779Z,36.31
2022-12-18T20:04:09.369Z,35.73
2022-12-18T20:09:14.312Z,35.82
2022-12-18T20:14:22.703Z,35.89
2022-12-18T20:19:27.792Z,35.93
2022-12-18T20:24:32.845Z,36.33
2022-12-18T20:29:36.376Z,36.30
2022-12-18T20:34:39.762Z,36.44
2022-12-18T20:39:45.680Z,36.29
2022-12-18T20:44:49.788Z,36.17
2022-12-18T20:49:53.160Z,35.91
2022-12-18T20:54:58.602Z,35.90
2022-12-18T21:00:04.325Z,35.82
2022-12-18T21:05:08.891Z,35.71
2022-12-18T21:10:13.708Z,35.92
2022-12-18T21:15:17.226Z,36.18
2022-12-18T21:20:20.725Z,36.68
2022-12-18T21:25:25.736Z,36.66
2022-12-18T21:30:29.182Z,36.14
2022-12-18T21:35:32.657Z,36.58
2022-12-18T21:40:39.923Z,37.02
2022-12-18T21:45:43.625Z,36.89
2022-12-18T21:50:47.099Z,37.50
2022-12-18T21:55:58.648Z,38.55
2022-12-18T22:01:02.198Z,38.47
2022-12-18T22:06:09.632Z,38.10
2022-12-18T22:11:14.739Z,37.92
2022-12-18T22:16:19.749Z,37.93
2022-12-18T22:21:29.071Z,37.64
2022-12-18T22:26:39.999Z,37.61
2022-12-18T22:31:44.168Z,37.52
2022-12-18T22:36:48.773Z,37.59
2022-12-18T22:41:53.640Z,37.92
2022-12-18T22:47:05.510Z,37.87
2022-12-18T22:52:10.705Z,38.38
2022-12-18T22:57:15.555Z,39.41
2022-12-18T23:02:19.928Z,38.72
2022-12-18T23:07:23.629Z,39.10
2022-12-18T23:12:28.532Z,39.28
2022-12-18T23:17:32.333Z,38.94
2022-12-18T23:22:35.883Z,39.88
2022-12-18T23:27:40.721Z,39.32
2022-12-18T23:32:44.142Z,39.02
2022-12-18T23:38:03.936Z,39.74
2022-12-18T23:43:09.037Z,38.53
2022-12-18T23:48:12.652Z,38.56
2022-12-18T23:53:16.189Z,39.20
2022-12-18T23:58:22.353Z,39.15
